Time;durP1;ratioP1;P1;durP2;ratioP2;P2;SDS_P1;SDS_P2;PMS_P1;PMS_P2;Temp;Humidity;BMP_temperature;BMP_pressure;BME280_temperature;BME280_humidity;BME280_pressure;Samples;Min_cycle;Max_cycle;Signal;HPM_P1;HPM_P2
2023/08/27 00:00:16;;;;;;;18.50;15.70;;;;;;;21.73;70.54;99899.63;109058;1275;22041;-77
2023/08/27 00:03:07;;;;;;;17.80;14.90;;;;;;;21.72;70.49;99906.34;108840;1278;21991;-77
2023/08/27 00:05:43;;;;;;;15.10;13.60;;;;;;;21.71;70.49;99908.86;108861;1278;21978;-76
2023/08/27 00:08:12;;;;;;;17.10;15.30;;;;;;;21.70;70.63;99904.36;109012;1274;22380;-77
2023/08/27 00:10:43;;;;;;;14.90;13.30;;;;;;;21.71;70.69;99905.81;109085;1273;23721;-77
2023/08/27 00:13:14;;;;;;;15.70;14.10;;;;;;;21.72;70.71;99906.98;109542;1268;21978;-77
2023/08/27 00:15:46;;;;;;;15.00;13.30;;;;;;;21.72;70.68;99911.12;109929;1263;23962;-77
2023/08/27 00:18:18;;;;;;;15.10;12.30;;;;;;;21.71;70.73;99917.95;110343;1263;21973;-77
2023/08/27 00:20:50;;;;;;;17.10;14.40;;;;;;;21.70;70.87;99924.71;110451;1255;23184;-77
2023/08/27 00:23:23;;;;;;;20.00;15.70;;;;;;;21.68;70.85;99926.35;110610;1259;21962;-77
2023/08/27 00:25:53;;;;;;;18.00;15.00;;;;;;;21.59;70.65;99931.37;109913;1267;21983;-76
2023/08/27 00:28:22;;;;;;;16.90;13.70;;;;;;;21.50;70.79;99938.09;110058;1259;22074;-77
2023/08/27 00:31:03;;;;;;;14.30;12.80;;;;;;;21.45;71.01;99941.84;109238;1271;21987;-76
2023/08/27 00:33:32;;;;;;;15.90;14.20;;;;;;;21.42;71.15;99936.44;109222;1271;22597;-76
2023/08/27 00:36:00;;;;;;;14.00;12.50;;;;;;;21.44;71.29;99935.40;109575;1271;23056;-76
2023/08/27 00:38:32;;;;;;;14.80;13.00;;;;;;;21.47;71.28;99933.54;109680;1271;22242;-78
2023/08/27 00:41:00;;;;;;;14.20;12.00;;;;;;;21.47;71.04;99928.93;109249;1271;23075;-77
2023/08/27 00:43:30;;;;;;;14.80;13.00;;;;;;;21.51;71.22;99932.65;109527;1264;21974;-77
2023/08/27 00:45:59;;;;;;;17.30;13.60;;;;;;;21.53;71.33;99934.77;110321;1264;21989;-76
2023/08/27 00:48:28;;;;;;;13.60;12.20;;;;;;;21.55;71.35;99934.23;110376;1258;21957;-75
2023/08/27 00:50:57;;;;;;;17.50;13.60;;;;;;;21.56;71.34;99935.14;110792;1259;23713;-76
2023/08/27 00:53:25;;;;;;;20.30;13.20;;;;;;;21.59;71.48;99938.44;110675;1259;23716;-77
2023/08/27 00:55:53;;;;;;;14.30;12.10;;;;;;;21.61;71.42;99947.27;110716;1258;21978;-78
2023/08/27 00:58:21;;;;;;;16.00;14.30;;;;;;;21.62;71.40;99951.95;110626;1258;21954;-77
2023/08/27 01:00:49;;;;;;;14.40;12.60;;;;;;;21.61;71.22;99949.09;110807;1258;21973;-76
2023/08/27 01:03:17;;;;;;;14.70;12.80;;;;;;;21.60;71.37;99958.54;110392;1263;21978;-77
2023/08/27 01:05:45;;;;;;;13.20;11.90;;;;;;;21.60;71.52;99968.80;109656;1268;23078;-76
2023/08/27 01:08:42;;;;;;;13.00;11.80;;;;;;;21.60;71.53;99967.02;109452;1268;23157;-77
2023/08/27 01:11:34;;;;;;;14.80;11.70;;;;;;;21.59;71.75;99970.89;109139;1273;22738;-76
2023/08/27 01:14:05;;;;;;;;;;;;;;;21.59;72.00;99972.23;109413;1273;22068;-76
2023/08/27 01:16:36;;;;;;;14.50;13.00;;;;;;;21.53;72.26;99970.49;109369;1273;21991;-76
2023/08/27 01:19:10;;;;;;;15.70;14.00;;;;;;;21.55;72.18;99966.45;109134;1273;21994;-76
2023/08/27 01:21:39;;;;;;;13.20;11.80;;;;;;;21.56;72.21;99960.12;108996;1274;23050;-77
2023/08/27 01:24:08;;;;;;;13.50;12.10;;;;;;;21.58;72.06;99954.84;109502;1269;21991;-76
2023/08/27 01:27:26;;;;;;;13.10;11.80;;;;;;;21.60;72.09;99956.84;109765;1268;22038;-75
2023/08/27 01:30:29;;;;;;;13.30;12.00;;;;;;;21.57;72.20;99958.82;109628;1270;21987;-77
2023/08/27 01:33:05;;;;;;;14.30;12.80;;;;;;;21.55;72.33;99964.45;108640;1281;22009;-77
2023/08/27 01:35:35;;;;;;;16.60;12.50;;;;;;;21.55;72.32;99961.30;108619;1281;22679;-76
2023/08/27 01:38:04;;;;;;;14.10;11.50;;;;;;;21.58;72.25;99964.97;108636;1281;21999;-76
2023/08/27 01:40:31;;;;;;;12.60;11.30;;;;;;;21.57;72.19;99971.23;108609;1280;22055;-76
2023/08/27 01:42:59;;;;;;;14.40;10.30;;;;;;;21.56;72.19;99975.59;108556;1280;22302;-76
2023/08/27 01:45:28;;;;;;;14.60;11.00;;;;;;;21.54;72.14;99981.80;108620;1276;21996;-75
2023/08/27 01:47:56;;;;;;;11.10;10.00;;;;;;;21.51;72.05;99981.48;109025;1274;22003;-75
2023/08/27 01:50:24;;;;;;;13.30;10.10;;;;;;;21.51;72.22;99977.45;109055;1272;22003;-75
2023/08/27 01:52:54;;;;;;;14.30;11.20;;;;;;;21.53;72.48;99971.41;109511;1272;23084;-76
2023/08/27 01:55:22;;;;;;;13.10;11.60;;;;;;;21.57;72.52;99965.91;109332;1272;22028;-76
2023/08/27 01:57:50;;;;;;;15.60;11.40;;;;;;;21.60;72.52;99956.61;109452;1272;23735;-78
2023/08/27 02:00:20;;;;;;;16.50;11.30;;;;;;;21.62;72.38;99948.65;109598;1272;22191;-78
2023/08/27 02:02:50;;;;;;;15.00;10.40;;;;;;;21.62;72.31;99948.42;109601;1272;22470;-77
2023/08/27 02:05:18;;;;;;;12.40;9.30;;;;;;;21.62;72.27;99949.35;109626;1272;23053;-77
2023/08/27 02:07:46;;;;;;;10.10;9.00;;;;;;;21.62;72.34;99949.21;109365;1273;22014;-77
2023/08/27 02:10:14;;;;;;;10.30;8.60;;;;;;;21.63;72.14;99950.33;109795;1266;22019;-77
2023/08/27 02:12:41;;;;;;;10.70;8.50;;;;;;;21.61;71.96;99945.48;110042;1266;23704;-77
2023/08/27 02:15:10;;;;;;;8.70;7.80;;;;;;;21.58;71.75;99949.84;110069;1266;21991;-78
2023/08/27 02:17:38;;;;;;;12.10;8.90;;;;;;;21.57;71.67;99954.39;110153;1266;21979;-80
2023/08/27 02:20:09;;;;;;;11.90;8.00;;;;;;;21.57;71.53;99956.00;110010;1266;23241;-78
2023/08/27 02:22:37;;;;;;;9.70;7.60;;;;;;;21.57;71.41;99950.52;109521;1268;23519;-79
2023/08/27 02:25:06;;;;;;;10.60;8.70;;;;;;;21.58;71.23;99945.42;109674;1265;23623;-79
2023/08/27 02:27:34;;;;;;;9.40;7.90;;;;;;;21.59;70.98;99936.54;110429;1264;22000;-79
2023/08/27 02:30:03;;;;;;;9.40;8.20;;;;;;;21.58;70.66;99927.02;110347;1264;22961;-77
2023/08/27 02:32:30;;;;;;;11.20;7.60;;;;;;;21.57;70.43;99920.95;110204;1264;23702;-78
2023/08/27 02:34:58;;;;;;;10.90;7.20;;;;;;;21.56;70.28;99924.41;110165;1264;23753;-78
2023/08/27 02:37:26;;;;;;;11.80;7.70;;;;;;;21.56;70.16;99928.43;110149;1264;23605;-79
2023/08/27 02:39:54;;;;;;;8.60;7.10;;;;;;;21.57;70.03;99930.53;110329;1264;22000;-78
2023/08/27 02:42:24;;;;;;;8.30;7.10;;;;;;;21.56;69.81;99929.02;110466;1264;22573;-78
2023/08/27 02:44:51;;;;;;;8.50;6.90;;;;;;;21.54;69.63;99926.20;110151;1264;22989;-79
2023/08/27 02:47:19;;;;;;;8.70;6.50;;;;;;;21.53;69.49;99929.48;110487;1258;22227;-78
2023/08/27 02:49:47;;;;;;;7.90;7.10;;;;;;;21.51;69.38;99929.44;110356;1265;21975;-78
2023/08/27 02:52:17;;;;;;;8.60;7.20;;;;;;;21.51;69.28;99930.35;110315;1265;21977;-76
2023/08/27 02:54:44;;;;;;;8.30;7.50;;;;;;;21.49;69.24;99930.54;110374;1265;22078;-76
2023/08/27 02:57:12;;;;;;;10.10;7.40;;;;;;;21.47;69.29;99928.39;109660;1270;22265;-78
2023/08/27 02:59:40;;;;;;;9.20;7.30;;;;;;;21.47;69.38;99931.73;109703;1270;22996;-76
2023/08/27 03:02:08;;;;;;;8.40;7.10;;;;;;;21.43;69.30;99932.12;107338;1270;2797672;-76
2023/08/27 03:04:36;;;;;;;10.00;7.40;;;;;;;21.47;69.34;99939.38;109552;1259;22080;-78
2023/08/27 03:07:03;;;;;;;10.70;7.40;;;;;;;21.45;69.32;99939.30;109538;1266;23832;-77
2023/08/27 03:09:31;;;;;;;11.70;8.10;;;;;;;21.45;69.34;99936.51;110044;1266;22988;-76
2023/08/27 03:11:59;;;;;;;9.20;7.40;;;;;;;21.45;69.27;99932.10;110031;1266;23045;-76
2023/08/27 03:14:27;;;;;;;11.20;7.60;;;;;;;21.44;69.30;99936.39;110137;1266;24338;-76
2023/08/27 03:16:55;;;;;;;11.80;8.10;;;;;;;21.43;69.38;99937.70;109446;1270;24417;-77
2023/08/27 03:19:22;;;;;;;11.20;7.30;;;;;;;21.42;69.29;99934.66;109584;1270;22002;-78
2023/08/27 03:21:50;;;;;;;11.20;8.20;;;;;;;21.38;69.18;99934.67;109873;1263;22013;-77
2023/08/27 03:24:18;;;;;;;8.80;6.80;;;;;;;21.34;69.35;99940.48;110105;1263;23029;-75
2023/08/27 03:26:46;;;;;;;9.30;7.70;;;;;;;21.35;69.56;99944.52;110396;1263;23696;-77
2023/08/27 03:29:14;;;;;;;11.00;8.00;;;;;;;21.35;69.62;99950.87;110412;1263;22969;-76
2023/08/27 03:31:42;;;;;;;12.00;7.40;;;;;;;21.34;69.58;99945.62;110431;1263;24215;-77
2023/08/27 03:34:10;;;;;;;14.50;7.70;;;;;;;21.31;69.47;99936.14;110421;1258;21968;-77
2023/08/27 03:36:38;;;;;;;11.70;7.80;;;;;;;21.29;69.43;99934.07;110885;1258;22956;-76
2023/08/27 03:39:08;;;;;;;13.30;8.40;;;;;;;21.28;69.47;99931.50;110802;1258;23737;-76
2023/08/27 03:41:36;;;;;;;15.70;7.30;;;;;;;21.29;69.50;99932.67;110877;1258;22428;-76
2023/08/27 03:44:03;;;;;;;8.30;7.30;;;;;;;21.30;69.50;99937.70;110880;1258;21984;-77
2023/08/27 03:46:31;;;;;;;11.70;7.10;;;;;;;21.27;69.38;99940.40;110836;1258;21975;-75
2023/08/27 03:49:04;;;;;;;9.30;7.60;;;;;;;21.24;69.31;99945.28;110717;1257;22411;-77
2023/08/27 03:51:33;;;;;;;11.60;8.00;;;;;;;21.22;69.46;99954.87;110857;1258;21969;-77
2023/08/27 03:54:01;;;;;;;11.30;7.90;;;;;;;21.20;69.47;99962.77;110308;1264;23035;-76
2023/08/27 03:56:28;;;;;;;10.30;7.40;;;;;;;21.17;69.36;99965.39;110188;1264;23032;-76
2023/08/27 03:58:56;;;;;;;9.60;7.10;;;;;;;21.13;69.41;99967.88;110203;1264;21951;-76
2023/08/27 04:01:26;;;;;;;14.30;7.90;;;;;;;21.09;69.50;99967.63;110159;1252;22972;-76
2023/08/27 04:03:55;;;;;;;12.90;7.60;;;;;;;21.07;69.54;99967.67;110258;1264;22181;-76
2023/08/27 04:06:23;;;;;;;12.50;8.10;;;;;;;21.03;69.56;99957.02;110352;1264;21972;-77
2023/08/27 04:08:56;;;;;;;10.90;7.60;;;;;;;21.03;69.68;99965.69;110300;1263;23137;-76
2023/08/27 04:11:28;;;;;;;8.80;7.90;;;;;;;21.01;69.73;99974.66;110472;1258;23039;-76
2023/08/27 04:14:02;;;;;;;13.40;7.20;;;;;;;20.98;69.69;99979.41;111014;1257;21960;-76
2023/08/27 04:16:33;;;;;;;12.80;7.70;;;;;;;20.96;69.85;99981.19;110961;1258;22028;-76
2023/08/27 04:19:05;;;;;;;10.10;7.70;;;;;;;20.95;69.99;99980.04;110972;1256;21964;-76
2023/08/27 04:21:33;;;;;;;12.70;8.40;;;;;;;20.93;69.99;99977.56;110848;1258;21966;-76
2023/08/27 04:24:03;;;;;;;15.10;8.30;;;;;;;20.90;70.10;99974.98;110586;1263;23499;-76
2023/08/27 04:26:33;;;;;;;13.50;9.00;;;;;;;20.90;70.38;99972.30;110585;1263;23013;-77
2023/08/27 04:29:02;;;;;;;10.90;8.80;;;;;;;20.91;70.36;99966.75;110445;1263;21977;-77
2023/08/27 04:31:30;;;;;;;10.40;9.00;;;;;;;20.91;70.40;99962.65;110322;1263;21973;-76
2023/08/27 04:34:04;;;;;;;11.20;8.70;;;;;;;20.92;70.39;99954.86;110067;1263;23628;-76
2023/08/27 04:36:34;;;;;;;11.10;9.70;;;;;;;20.92;70.58;99952.15;110398;1263;23738;-76
2023/08/27 04:39:07;;;;;;;13.40;9.80;;;;;;;20.93;70.61;99946.19;109706;1269;22010;-77
2023/08/27 04:41:35;;;;;;;13.90;9.10;;;;;;;20.94;70.54;99944.34;109884;1266;22732;-76
2023/08/27 04:44:05;;;;;;;13.60;9.10;;;;;;;20.95;70.61;99953.34;110244;1265;21982;-76
2023/08/27 04:46:34;;;;;;;10.20;9.10;;;;;;;20.94;70.53;99955.91;110293;1264;23809;-76
2023/08/27 04:49:02;;;;;;;13.00;8.70;;;;;;;20.92;70.62;99943.65;109945;1268;22974;-77
2023/08/27 04:51:31;;;;;;;10.40;9.30;;;;;;;20.93;70.62;99933.89;108997;1276;21983;-76
2023/08/27 04:53:59;;;;;;;14.00;10.30;;;;;;;20.92;70.58;99931.14;108946;1276;23860;-77
2023/08/27 04:56:28;;;;;;;11.20;9.50;;;;;;;20.91;70.51;99936.71;108920;1276;22015;-77
2023/08/27 04:58:55;;;;;;;11.90;9.70;;;;;;;20.89;70.49;99943.80;108905;1276;22003;-76
2023/08/27 05:01:24;;;;;;;14.20;9.90;;;;;;;20.84;70.51;99944.33;109030;1276;23056;-78
2023/08/27 05:03:51;;;;;;;10.90;9.90;;;;;;;20.82;70.49;99943.11;109185;1271;23167;-78
2023/08/27 05:06:19;;;;;;;12.70;11.50;;;;;;;20.81;70.45;99938.66;109578;1266;21991;-78
2023/08/27 05:08:47;;;;;;;12.30;9.30;;;;;;;20.81;70.62;99928.50;109428;1265;21999;-76
2023/08/27 05:11:15;;;;;;;12.50;10.60;;;;;;;20.85;70.82;99926.09;110164;1264;21992;-76
2023/08/27 05:13:45;;;;;;;10.60;9.50;;;;;;;20.90;70.81;99920.02;110521;1258;23812;-76
2023/08/27 05:16:15;;;;;;;12.50;10.30;;;;;;;20.95;70.83;99922.23;110870;1259;21966;-78
2023/08/27 05:18:46;;;;;;;11.60;10.10;;;;;;;21.01;70.94;99926.60;110496;1263;23033;-78
2023/08/27 05:21:17;;;;;;;10.80;9.70;;;;;;;21.09;70.89;99931.23;109599;1270;21985;-78
2023/08/27 05:23:45;;;;;;;13.70;9.80;;;;;;;21.19;70.82;99930.48;109649;1268;23666;-78
2023/08/27 05:26:15;;;;;;;14.90;11.80;;;;;;;21.29;70.73;99922.33;109758;1270;21994;-78
2023/08/27 05:28:49;;;;;;;12.30;11.10;;;;;;;21.36;70.38;99910.19;109702;1270;21988;-79
2023/08/27 05:31:18;;;;;;;15.30;11.10;;;;;;;21.41;70.01;99913.45;109741;1270;23746;-81
2023/08/27 05:33:48;;;;;;;11.30;10.20;;;;;;;21.49;69.94;99914.89;109497;1268;22021;-76
2023/08/27 05:36:16;;;;;;;11.90;10.20;;;;;;;21.59;69.73;99900.57;109662;1270;21989;-79
2023/08/27 05:38:45;;;;;;;12.60;11.30;;;;;;;21.67;69.77;99900.19;109355;1269;23794;-80
2023/08/27 05:41:13;;;;;;;10.80;9.80;;;;;;;21.79;69.55;99902.81;109348;1273;21984;-80
2023/08/27 05:43:49;;;;;;;11.40;9.70;;;;;;;21.90;69.23;99900.92;109719;1268;22796;-78
2023/08/27 05:46:20;;;;;;;10.20;9.00;;;;;;;22.00;68.90;99894.81;110142;1268;21940;-78
2023/08/27 05:48:50;;;;;;;8.80;8.00;;;;;;;22.10;68.55;99886.15;109413;1271;21996;-80
2023/08/27 05:51:18;;;;;;;11.30;9.40;;;;;;;22.17;68.11;99881.73;109637;1270;22044;-78
2023/08/27 05:53:46;;;;;;;11.00;9.50;;;;;;;22.21;67.66;99882.96;109527;1272;23707;-77
2023/08/27 05:56:14;;;;;;;10.60;8.40;;;;;;;22.24;67.27;99888.73;109661;1268;22196;-78
2023/08/27 05:58:44;;;;;;;11.60;10.20;;;;;;;22.31;67.35;99889.66;110066;1263;21987;-77
2023/08/27 06:01:12;;;;;;;11.50;9.90;;;;;;;22.44;67.43;99889.05;110574;1263;21974;-78
2023/08/27 06:03:40;;;;;;;11.50;9.80;;;;;;;22.56;67.01;99888.58;110557;1251;23068;-77
2023/08/27 06:06:08;;;;;;;11.60;10.50;;;;;;;22.66;66.48;99886.73;110162;1258;21973;-77
2023/08/27 06:08:36;;;;;;;13.60;12.20;;;;;;;22.75;66.17;99884.05;110960;1258;21963;-77
2023/08/27 06:11:04;;;;;;;9.60;8.30;;;;;;;22.84;65.89;99883.92;110694;1259;22992;-76
2023/08/27 06:13:34;;;;;;;13.40;9.30;;;;;;;22.92;65.62;99883.33;110849;1259;21959;-76
2023/08/27 06:16:03;;;;;;;13.20;8.30;;;;;;;22.99;65.05;99886.16;110992;1258;23600;-77
2023/08/27 06:18:33;;;;;;;9.10;8.20;;;;;;;23.02;64.30;99891.45;110979;1257;21966;-80
2023/08/27 06:21:04;;;;;;;12.10;8.10;;;;;;;23.01;64.01;99901.23;110924;1258;22888;-78
2023/08/27 06:23:43;;;;;;;12.00;10.90;;;;;;;23.01;63.72;99899.27;110898;1258;23700;-77
2023/08/27 06:26:16;;;;;;;12.20;9.10;;;;;;;22.97;63.29;99891.16;110785;1258;23007;-79
2023/08/27 06:28:49;;;;;;;8.70;7.70;;;;;;;22.93;62.98;99888.79;111191;1258;22974;-80
2023/08/27 06:31:25;;;;;;;8.50;7.30;;;;;;;22.89;62.71;99881.49;110789;1259;22177;-79
2023/08/27 06:33:54;;;;;;;12.30;11.00;;;;;;;22.86;62.69;99868.45;110829;1260;21965;-79
2023/08/27 06:36:24;;;;;;;11.20;10.10;;;;;;;22.86;62.62;99867.64;110652;1260;21975;-79
2023/08/27 06:39:05;;;;;;;7.80;7.00;;;;;;;22.86;62.52;99865.66;110629;1260;21986;-78
2023/08/27 06:41:37;;;;;;;8.00;7.10;;;;;;;22.83;62.28;99861.48;110635;1260;22739;-77
2023/08/27 06:44:12;;;;;;;6.80;5.20;;;;;;;22.83;62.12;99859.93;110335;1266;21976;-76
2023/08/27 06:46:44;;;;;;;12.10;8.20;;;;;;;22.80;61.71;99862.86;110136;1267;22043;-77
2023/08/27 06:49:17;;;;;;;8.50;5.80;;;;;;;22.77;61.65;99857.52;110022;1267;21976;-78
2023/08/27 06:51:47;;;;;;;;;;;;;;;22.76;61.67;99855.46;110350;1263;23700;-78
2023/08/27 06:54:22;;;;;;;7.80;5.00;;;;;;;22.68;62.07;99855.86;109727;1269;22955;-80
2023/08/27 06:56:56;;;;;;;9.00;5.60;;;;;;;22.73;61.97;99861.20;109667;1269;23622;-78
2023/08/27 06:59:36;;;;;;;8.60;5.60;;;;;;;22.81;61.83;99868.73;109475;1269;22444;-78
2023/08/27 07:02:05;;;;;;;6.20;5.60;;;;;;;22.86;61.55;99869.36;110007;1264;22949;-78
2023/08/27 07:04:33;;;;;;;10.60;5.90;;;;;;;22.86;61.26;99865.88;109997;1259;22930;-79
2023/08/27 07:07:13;;;;;;;11.00;6.50;;;;;;;22.87;61.23;99869.16;110130;1268;23061;-79
2023/08/27 07:09:48;;;;;;;5.90;5.20;;;;;;;22.90;61.30;99872.02;109708;1269;22714;-78
2023/08/27 07:12:20;;;;;;;14.10;6.20;;;;;;;22.95;61.50;99878.10;109188;1272;23958;-78
2023/08/27 07:14:52;;;;;;;7.50;6.70;;;;;;;22.99;61.59;99876.79;109404;1270;21974;-79
2023/08/27 07:17:21;;;;;;;9.30;7.00;;;;;;;23.05;61.77;99870.02;108970;1277;22780;-78
2023/08/27 07:19:54;;;;;;;14.60;8.10;;;;;;;23.13;61.90;99862.19;108826;1278;21999;-77
2023/08/27 07:22:23;;;;;;;9.20;6.40;;;;;;;23.19;61.80;99858.35;108954;1274;21978;-80
2023/08/27 07:24:53;;;;;;;10.70;7.30;;;;;;;23.23;62.01;99857.12;109234;1274;22016;-80
2023/08/27 07:27:25;;;;;;;10.30;6.80;;;;;;;23.38;61.94;99869.48;109397;1269;22978;-80
2023/08/27 07:29:58;;;;;;;10.80;7.20;;;;;;;23.46;61.79;99878.48;109504;1263;23029;-78
2023/08/27 07:32:38;;;;;;;11.20;9.10;;;;;;;23.54;61.63;99889.14;110335;1263;22107;-79
2023/08/27 07:35:08;;;;;;;10.00;7.90;;;;;;;23.59;61.42;99888.48;110593;1257;23040;-76
2023/08/27 07:37:40;;;;;;;12.00;7.60;;;;;;;23.62;61.15;99885.20;110953;1257;23700;-77
2023/08/27 07:40:10;;;;;;;12.60;7.40;;;;;;;23.64;61.07;99888.52;111081;1256;23612;-77
2023/08/27 07:42:40;;;;;;;15.70;7.70;;;;;;;23.67;60.99;99888.91;111079;1256;24342;-75
2023/08/27 07:45:22;;;;;;;13.00;7.90;;;;;;;23.72;60.87;99884.88;110941;1256;21979;-74
2023/08/27 07:47:51;;;;;;;12.10;8.70;;;;;;;23.75;60.61;99871.32;110383;1262;21963;-78
2023/08/27 07:50:22;;;;;;;32.10;8.90;;;;;;;23.75;60.23;99852.24;110549;1262;23071;-74
2023/08/27 07:52:58;;;;;;;10.40;8.40;;;;;;;23.77;60.39;99849.76;109788;1262;21985;-76
2023/08/27 07:55:35;;;;;;;9.20;7.80;;;;;;;23.82;60.66;99845.41;110175;1265;21978;-76
2023/08/27 07:58:11;;;;;;;9.50;7.20;;;;;;;23.88;60.99;99836.10;109792;1267;22760;-76
2023/08/27 08:01:04;;;;;;;8.90;7.90;;;;;;;24.01;61.29;99832.84;109326;1272;21984;-75
2023/08/27 08:03:42;;;;;;;9.10;7.90;;;;;;;24.22;61.26;99829.93;109431;1272;22097;-76
2023/08/27 08:06:11;;;;;;;12.80;7.60;;;;;;;24.39;60.51;99828.48;109479;1267;22219;-77
2023/08/27 08:08:47;;;;;;;13.20;7.40;;;;;;;24.51;59.88;99830.96;109707;1267;23596;-76
2023/08/27 08:11:24;;;;;;;7.60;6.90;;;;;;;24.65;59.60;99832.25;109880;1262;23700;-78
2023/08/27 08:13:58;;;;;;;10.40;7.20;;;;;;;24.78;59.17;99832.49;110213;1262;23708;-77
2023/08/27 08:16:43;;;;;;;10.60;6.60;;;;;;;24.93;59.28;99824.24;110350;1262;21972;-76
2023/08/27 08:19:21;;;;;;;12.00;6.40;;;;;;;25.25;59.43;99819.81;110727;1256;21955;-75
2023/08/27 08:21:52;;;;;;;;;;;;;;;25.76;59.59;99822.52;110874;1256;22916;-75
2023/08/27 08:24:29;;;;;;;9.80;6.60;;;;;;;26.32;59.00;99823.98;110876;1243;21960;-74
2023/08/27 08:27:08;;;;;;;8.30;6.20;;;;;;;26.94;57.92;99821.19;110895;1256;23023;-75
2023/08/27 08:29:47;;;;;;;9.20;6.30;;;;;;;27.71;56.33;99824.61;110950;1256;22610;-78
2023/08/27 08:32:28;;;;;;;9.10;5.60;;;;;;;28.25;53.70;99822.08;110882;1256;21992;-75
2023/08/27 08:35:13;;;;;;;17.00;5.90;;;;;;;28.61;52.00;99819.17;110845;1256;22022;-76
2023/08/27 08:37:53;;;;;;;6.50;5.80;;;;;;;28.97;51.32;99815.23;110526;1261;23625;-77
2023/08/27 08:40:25;;;;;;;6.60;6.00;;;;;;;29.32;50.60;99812.23;110598;1261;23698;-77
2023/08/27 08:43:10;;;;;;;7.90;6.50;;;;;;;29.87;50.21;99812.15;110519;1261;22586;-77
2023/08/27 08:45:50;;;;;;;6.30;4.60;;;;;;;30.22;47.54;99816.19;109583;1267;23699;-76
2023/08/27 08:48:38;;;;;;;9.90;4.90;;;;;;;30.19;46.39;99815.75;110255;1267;21994;-77
2023/08/27 08:51:26;;;;;;;8.90;5.40;;;;;;;29.86;45.62;99808.05;109438;1270;21975;-75
2023/08/27 08:54:05;;;;;;;6.20;5.60;;;;;;;29.37;46.26;99804.06;109579;1270;24396;-77
2023/08/27 08:56:51;;;;;;;9.80;6.60;;;;;;;29.10;47.27;99810.83;110025;1265;22444;-76
2023/08/27 08:59:27;;;;;;;9.70;5.40;;;;;;;28.90;47.83;99817.06;109717;1270;22658;-74
2023/08/27 09:02:08;;;;;;;7.80;5.80;;;;;;;28.67;48.04;99819.30;109466;1270;22013;-77
2023/08/27 09:04:43;;;;;;;6.10;5.20;;;;;;;28.44;48.33;99816.06;110021;1265;22524;-75
2023/08/27 09:07:14;;;;;;;8.00;5.30;;;;;;;28.24;48.30;99810.27;109395;1272;22738;-77
2023/08/27 09:09:51;;;;;;;8.00;5.50;;;;;;;28.05;48.32;99803.38;109704;1267;21983;-76
2023/08/27 09:12:21;;;;;;;8.80;6.50;;;;;;;27.84;48.62;99806.25;110193;1266;22613;-76
2023/08/27 09:14:54;;;;;;;6.70;5.80;;;;;;;27.55;49.09;99819.69;110379;1267;22972;-77
2023/08/27 09:17:33;;;;;;;7.00;5.80;;;;;;;27.30;50.05;99829.24;110289;1263;22958;-75
2023/08/27 09:20:07;;;;;;;10.90;5.40;;;;;;;27.17;50.41;99828.20;110340;1263;21972;-78
2023/08/27 09:22:44;;;;;;;13.20;6.60;;;;;;;27.11;50.90;99817.10;110227;1263;23721;-82
2023/08/27 09:25:22;;;;;;;7.60;4.50;;;;;;;27.04;51.64;99817.02;110739;1256;22433;-77
2023/08/27 09:27:53;;;;;;;7.70;4.60;;;;;;;26.90;51.93;99823.64;111085;1256;22023;-76
2023/08/27 09:30:28;;;;;;;7.10;4.90;;;;;;;26.82;52.38;99822.95;110493;1264;21982;-78
2023/08/27 09:33:38;;;;;;;5.50;4.90;;;;;;;26.84;52.72;99817.04;111108;1263;21975;-79
2023/08/27 09:36:22;;;;;;;7.30;5.10;;;;;;;26.86;52.50;99809.23;111085;1263;22205;-76
2023/08/27 09:39:10;;;;;;;6.20;4.80;;;;;;;26.93;52.23;99809.02;110954;1263;23029;-78
2023/08/27 09:41:58;;;;;;;7.60;6.30;;;;;;;27.03;52.11;99805.71;110104;1269;22005;-77
2023/08/27 09:44:31;;;;;;;5.60;5.10;;;;;;;27.13;51.81;99802.35;110272;1269;22060;-77
2023/08/27 09:47:10;;;;;;;9.10;4.90;;;;;;;27.21;51.40;99800.42;109970;1269;22073;-80
2023/08/27 09:49:43;;;;;;;8.40;5.10;;;;;;;27.28;51.08;99799.48;110354;1262;23024;-75
2023/08/27 09:52:25;;;;;;;8.90;4.60;;;;;;;27.36;51.06;99799.52;110549;1263;21971;-80
2023/08/27 09:55:08;;;;;;;6.60;4.70;;;;;;;27.45;51.20;99795.33;110521;1263;23595;-76
2023/08/27 09:57:53;;;;;;;6.20;4.60;;;;;;;27.49;50.89;99790.34;110113;1266;21974;-76
2023/08/27 10:00:22;;;;;;;;;;;;;;;27.43;50.34;99781.73;110478;1259;24383;-77
2023/08/27 10:02:53;;;;;;;;;;;;;;;27.32;50.39;99770.95;110272;1267;21969;-76
2023/08/27 10:05:28;;;;;;;5.60;4.00;;;;;;;27.20;50.57;99762.16;110622;1266;22182;-77
2023/08/27 10:08:00;;;;;;;7.90;4.10;;;;;;;27.20;50.38;99763.48;110358;1266;21944;-77
2023/08/27 10:10:29;;;;;;;4.90;3.90;;;;;;;27.22;50.45;99765.96;109648;1272;21998;-77
2023/08/27 10:13:06;;;;;;;6.10;3.80;;;;;;;27.26;50.54;99766.27;109728;1272;23745;-77
2023/08/27 10:15:47;;;;;;;6.70;4.00;;;;;;;27.32;50.28;99764.02;109364;1276;22095;-78
2023/08/27 10:18:22;;;;;;;6.50;3.90;;;;;;;27.35;49.86;99760.40;109406;1276;22758;-76
2023/08/27 10:20:53;;;;;;;12.20;4.20;;;;;;;27.40;49.71;99757.45;109366;1276;23053;-76
2023/08/27 10:23:26;;;;;;;6.10;3.20;;;;;;;27.52;49.56;99755.73;109403;1277;21936;-76
2023/08/27 10:26:00;;;;;;;6.20;4.10;;;;;;;27.68;48.98;99751.44;109070;1277;23652;-76
2023/08/27 10:28:30;;;;;;;21.60;19.30;;;;;;;27.76;48.85;99739.56;109113;1273;23142;-75
2023/08/27 10:30:59;;;;;;;5.60;5.00;;;;;;;27.88;47.71;99750.09;108905;1278;23052;-75
2023/08/27 10:33:39;;;;;;;5.80;4.20;;;;;;;27.85;47.56;99756.19;109036;1274;21996;-76
2023/08/27 10:36:16;;;;;;;5.50;3.30;;;;;;;27.86;46.91;99762.05;109989;1264;23030;-77
2023/08/27 10:38:49;;;;;;;5.80;3.50;;;;;;;27.83;46.37;99763.48;110009;1268;22019;-79
2023/08/27 10:41:34;;;;;;;6.20;3.20;;;;;;;27.80;46.24;99761.47;110121;1262;21977;-76
2023/08/27 10:44:11;;;;;;;5.80;3.60;;;;;;;27.71;46.05;99762.57;110225;1265;23721;-79
2023/08/27 10:47:14;;;;;;;4.30;3.50;;;;;;;27.68;46.55;99764.69;110667;1246;23734;-80
2023/08/27 10:49:49;;;;;;;12.40;4.10;;;;;;;27.69;46.18;99760.81;110804;1258;23615;-76
2023/08/27 10:52:25;;;;;;;6.70;4.20;;;;;;;27.78;46.37;99765.34;110804;1259;21858;-86
2023/08/27 10:55:06;;;;;;;8.50;3.80;;;;;;;27.90;46.28;99773.96;111145;1258;21969;-79
2023/08/27 10:57:37;;;;;;;8.20;3.60;;;;;;;27.92;45.90;99769.34;110743;1264;21971;-81
2023/08/27 11:00:12;;;;;;;;;;;;;;;27.92;46.10;99757.34;110705;1264;21960;-81
2023/08/27 11:03:13;;;;;;;4.50;3.40;;;;;;;27.87;46.22;99760.70;110335;1264;22020;-77
2023/08/27 11:06:11;;;;;;;7.00;3.50;;;;;;;27.86;45.46;99756.98;110306;1265;21970;-85
2023/08/27 11:08:54;;;;;;;9.70;3.70;;;;;;;27.86;45.18;99747.90;109724;1269;24358;-78
2023/08/27 11:11:27;;;;;;;6.60;4.90;;;;;;;27.89;45.11;99745.58;109721;1268;21981;-77
2023/08/27 11:14:10;;;;;;;7.80;6.70;;;;;;;27.91;45.11;99740.36;110046;1269;21978;-78
2023/08/27 11:17:06;;;;;;;4.40;3.90;;;;;;;27.96;45.23;99735.85;110281;1264;21969;-81
2023/08/27 11:19:37;;;;;;;8.80;3.90;;;;;;;28.01;44.85;99731.06;110338;1263;21980;-76
2023/08/27 11:22:19;;;;;;;4.20;3.50;;;;;;;28.06;44.70;99728.39;110211;1266;23638;-78
2023/08/27 11:24:52;;;;;;;6.80;3.60;;;;;;;28.07;44.45;99729.10;109894;1271;23080;-79
2023/08/27 11:27:27;;;;;;;6.90;5.00;;;;;;;28.11;44.56;99731.80;109428;1272;22118;-79
2023/08/27 11:29:56;;;;;;;6.60;4.00;;;;;;;28.23;44.35;99732.02;109626;1268;22021;-79
2023/08/27 11:32:27;;;;;;;9.10;3.70;;;;;;;28.30;43.72;99720.59;109314;1273;21979;-80
2023/08/27 11:35:03;;;;;;;16.00;3.70;;;;;;;28.35;43.22;99709.95;109232;1273;21996;-81
2023/08/27 11:37:32;;;;;;;7.20;3.90;;;;;;;28.36;43.11;99690.89;109425;1272;21981;-82
2023/08/27 11:40:16;;;;;;;5.20;3.30;;;;;;;28.41;43.17;99686.90;109934;1263;21983;-78
2023/08/27 11:42:51;;;;;;;11.70;4.70;;;;;;;28.46;43.15;99711.68;109735;1268;21959;-87
2023/08/27 11:45:49;;;;;;;5.60;3.50;;;;;;;28.50;43.13;99729.79;110533;1264;21985;-87